createdAt,value
2018-05-07T00:01:03.700Z,98408.95
2018-05-07T00:03:32.348Z,98403.50
2018-05-07T00:06:00.793Z,98403.76
2018-05-07T00:08:29.198Z,98410.16
2018-05-07T00:10:57.491Z,98408.53
2018-05-07T00:13:26.499Z,98415.80
2018-05-07T00:15:55.396Z,98417.38
2018-05-07T00:18:23.775Z,98417.37
2018-05-07T00:20:52.153Z,98409.94
2018-05-07T00:23:20.448Z,98406.63
2018-05-07T00:25:49.063Z,98405.23
2018-05-07T00:28:18.605Z,98408.71
2018-05-07T00:30:46.932Z,98407.66
2018-05-07T00:33:16.581Z,98403.11
2018-05-07T00:35:45.480Z,98406.92
2018-05-07T00:38:13.764Z,98400.29
2018-05-07T00:40:42.775Z,98400.91
2018-05-07T00:43:11.065Z,98392.50
2018-05-07T00:45:39.347Z,98396.82
2018-05-07T00:48:07.673Z,98396.06
2018-05-07T00:50:37.588Z,98395.17
2018-05-07T00:53:06.810Z,98391.84
2018-05-07T00:55:35.685Z,98386.46
2018-05-07T00:58:03.968Z,98382.27
2018-05-07T01:00:32.251Z,98385.41
2018-05-07T01:03:01.125Z,98389.05
2018-05-07T01:05:29.407Z,98390.52
2018-05-07T01:07:57.759Z,98390.30
2018-05-07T01:10:26.235Z,98391.38
2018-05-07T01:12:54.698Z,98390.44
2018-05-07T01:15:23.069Z,98387.67
2018-05-07T01:17:51.352Z,98389.98
2018-05-07T01:20:19.638Z,98392.06
2018-05-07T01:22:47.938Z,98390.10
2018-05-07T01:25:16.219Z,98391.72
2018-05-07T01:27:45.015Z,98393.13
2018-05-07T01:30:13.303Z,98392.50
2018-05-07T01:32:41.626Z,98388.81
2018-05-07T01:35:09.917Z,98391.89
2018-05-07T01:37:38.211Z,98402.66
2018-05-07T01:40:06.554Z,98402.83
2018-05-07T01:42:34.834Z,98399.08
2018-05-07T01:45:03.109Z,98397.70
2018-05-07T01:47:31.419Z,98401.48
2018-05-07T01:50:00.074Z,98392.85
2018-05-07T01:52:28.354Z,98398.77
2018-05-07T01:54:57.107Z,98397.22
2018-05-07T01:57:25.953Z,98398.56
2018-05-07T01:59:54.308Z,98397.11
2018-05-07T02:02:23.285Z,98392.37
2018-05-07T02:04:52.377Z,98393.66
2018-05-07T02:07:21.518Z,98390.52
2018-05-07T02:09:50.612Z,98385.91
2018-05-07T02:12:20.529Z,98384.28
2018-05-07T02:14:49.602Z,98380.99
2018-05-07T02:17:19.520Z,98384.12
2018-05-07T02:19:48.589Z,98380.22
2018-05-07T02:22:16.991Z,98386.88
2018-05-07T02:24:46.005Z,98383.78
2018-05-07T02:27:15.149Z,98385.69
2018-05-07T02:29:44.366Z,98394.66
2018-05-07T02:32:12.647Z,98388.36
2018-05-07T02:34:41.699Z,98392.09
2018-05-07T02:37:10.309Z,98391.44
2018-05-07T02:39:39.715Z,98389.50
2018-05-07T02:42:09.627Z,98388.91
2018-05-07T02:44:38.115Z,98388.71
2018-05-07T02:47:06.399Z,98394.72
2018-05-07T02:49:34.846Z,98392.29
2018-05-07T02:52:03.179Z,98381.89
2018-05-07T02:54:31.910Z,98382.82
2018-05-07T02:57:00.976Z,98377.39
2018-05-07T02:59:29.375Z,98378.51
2018-05-07T03:01:58.290Z,98374.02
2018-05-07T03:04:26.644Z,98373.17
2018-05-07T03:06:55.110Z,98375.59
2018-05-07T03:09:23.386Z,98370.03
2018-05-07T03:11:52.251Z,98370.45
2018-05-07T03:14:20.551Z,98376.77
2018-05-07T03:16:48.914Z,98374.10
2018-05-07T03:19:17.218Z,98375.66
2018-05-07T03:21:46.543Z,98373.05
2018-05-07T03:24:14.912Z,98365.33
2018-05-07T03:26:43.199Z,98367.09
2018-05-07T03:29:11.474Z,98370.19
2018-05-07T03:31:40.322Z,98373.63
2018-05-07T03:34:09.085Z,98372.63
2018-05-07T03:36:38.128Z,98376.56
2018-05-07T03:39:06.446Z,98373.22
2018-05-07T03:41:34.731Z,98369.84
2018-05-07T03:44:03.806Z,98370.23
2018-05-07T03:46:32.366Z,98368.88
2018-05-07T03:49:01.075Z,98364.38
2018-05-07T03:51:29.738Z,98369.55
2018-05-07T03:53:58.018Z,98368.27
2018-05-07T03:56:26.302Z,98368.16
2018-05-07T03:58:54.638Z,98367.09
2018-05-07T04:01:23.315Z,98367.85
2018-05-07T04:03:51.910Z,98373.36
2018-05-07T04:06:20.215Z,98367.38
2018-05-07T04:08:48.800Z,98367.99
2018-05-07T04:11:17.656Z,98355.89
2018-05-07T04:13:45.990Z,98363.53
2018-05-07T04:16:31.847Z,98359.20
2018-05-07T04:19:17.650Z,98357.72
2018-05-07T04:22:03.415Z,98357.89
2018-05-07T04:24:31.889Z,98361.48
2018-05-07T04:27:00.670Z,98354.03
2018-05-07T04:29:28.968Z,98354.02
2018-05-07T04:31:57.273Z,98358.12
2018-05-07T04:34:25.578Z,98358.33
2018-05-07T04:36:54.034Z,98353.88
2018-05-07T04:39:22.354Z,98348.22
2018-05-07T04:41:50.630Z,98354.64
2018-05-07T04:44:18.926Z,98358.31
2018-05-07T04:46:47.255Z,98359.38
2018-05-07T04:49:15.927Z,98359.41
2018-05-07T04:51:45.205Z,98365.21
2018-05-07T04:54:13.626Z,98371.69
2018-05-07T04:56:42.567Z,98377.80
2018-05-07T04:59:11.714Z,98376.75
2018-05-07T05:01:40.331Z,98376.12
2018-05-07T05:04:08.978Z,98377.17
2018-05-07T05:06:38.102Z,98374.38
2018-05-07T05:09:07.228Z,98374.41
2018-05-07T05:11:36.438Z,98373.23
2018-05-07T05:14:05.506Z,98369.70
2018-05-07T05:16:34.630Z,98371.41
2018-05-07T05:19:03.719Z,98374.20
2018-05-07T05:21:32.695Z,98380.06
2018-05-07T05:24:01.001Z,98374.21
2018-05-07T05:26:31.227Z,98379.14
2018-05-07T05:28:59.733Z,98374.28
2018-05-07T05:31:28.746Z,98378.75
2018-05-07T05:33:57.074Z,98376.15
2018-05-07T05:36:25.735Z,98382.14
2018-05-07T05:38:54.060Z,98385.97
2018-05-07T05:41:22.739Z,98381.78
2018-05-07T05:43:52.455Z,98384.34
2018-05-07T05:46:20.779Z,98390.62
2018-05-07T05:48:49.097Z,98380.94
2018-05-07T05:51:17.936Z,98382.41
2018-05-07T05:53:46.312Z,98378.72
2018-05-07T05:56:14.945Z,98380.19
2018-05-07T05:58:43.174Z,98378.48
2018-05-07T06:01:11.623Z,98378.36
2018-05-07T06:03:40.592Z,98381.74
2018-05-07T06:06:08.862Z,98381.51
2018-05-07T06:08:37.614Z,98390.06
2018-05-07T06:11:05.967Z,98388.13
2018-05-07T06:13:34.251Z,98384.80
2018-05-07T06:16:02.731Z,98390.59
2018-05-07T06:18:31.026Z,98392.44
2018-05-07T06:20:59.305Z,98390.59
2018-05-07T06:23:27.634Z,98390.06
2018-05-07T06:25:55.910Z,98390.13
2018-05-07T06:28:24.710Z,98389.39
2018-05-07T06:30:53.075Z,98388.11
2018-05-07T06:33:21.830Z,98391.47
2018-05-07T06:35:50.116Z,98388.11
2018-05-07T06:38:18.470Z,98388.20
2018-05-07T06:40:46.864Z,98384.23
2018-05-07T06:43:15.594Z,98381.28
2018-05-07T06:45:44.082Z,98375.50
2018-05-07T06:48:13.455Z,98382.31
2018-05-07T06:50:42.423Z,98379.21
2018-05-07T06:53:11.755Z,98378.09
2018-05-07T06:55:40.034Z,98381.55
2018-05-07T06:58:08.311Z,98371.59
2018-05-07T07:00:36.651Z,98378.97
2018-05-07T07:03:04.938Z,98371.54
2018-05-07T07:05:33.219Z,98368.81
2018-05-07T07:08:02.303Z,98371.23
2018-05-07T07:10:30.535Z,98358.85
2018-05-07T07:12:58.816Z,98364.75
2018-05-07T07:15:27.626Z,98366.52
2018-05-07T07:17:56.381Z,98373.03
2018-05-07T07:20:25.883Z,98370.21
2018-05-07T07:22:54.636Z,98365.58
2018-05-07T07:25:22.913Z,98371.00
2018-05-07T07:27:51.197Z,98368.08
2018-05-07T07:30:19.542Z,98356.62
2018-05-07T07:32:48.588Z,98364.14
2018-05-07T07:35:17.146Z,98357.89
2018-05-07T07:37:45.635Z,98356.03
2018-05-07T07:40:13.906Z,98351.59
2018-05-07T07:42:42.206Z,98360.25
2018-05-07T07:45:10.523Z,98357.77
2018-05-07T07:47:38.871Z,98351.05
2018-05-07T07:50:07.453Z,98360.26
2018-05-07T07:52:35.938Z,98349.52
2018-05-07T07:55:04.223Z,98353.81
2018-05-07T07:57:32.683Z,98350.41
2018-05-07T08:00:00.998Z,98356.05
2018-05-07T08:02:29.579Z,98347.81
2018-05-07T08:04:57.859Z,98349.58
2018-05-07T08:07:28.126Z,98348.13
2018-05-07T08:09:56.420Z,98345.20
2018-05-07T08:12:25.480Z,98345.97
2018-05-07T08:14:54.279Z,98340.45
2018-05-07T08:17:23.905Z,98342.11
2018-05-07T08:19:52.607Z,98332.08
2018-05-07T08:22:20.999Z,98339.17
2018-05-07T08:24:49.479Z,98330.39
2018-05-07T08:27:17.771Z,98330.82
2018-05-07T08:29:46.067Z,98336.28
2018-05-07T08:32:14.387Z,98332.07
2018-05-07T08:34:42.662Z,98336.41
2018-05-07T08:37:11.062Z,98333.23
2018-05-07T08:39:39.943Z,98330.81
2018-05-07T08:42:08.225Z,98332.14
2018-05-07T08:44:36.730Z,98328.59
2018-05-07T08:47:05.511Z,98336.61
2018-05-07T08:49:33.798Z,98327.42
2018-05-07T08:52:02.077Z,98330.88
2018-05-07T08:54:30.577Z,98323.05
2018-05-07T08:56:58.871Z,98319.43
2018-05-07T08:59:27.150Z,98317.16
2018-05-07T09:01:55.721Z,98318.89
2018-05-07T09:04:24.017Z,98312.00
2018-05-07T09:06:52.625Z,98311.17
2018-05-07T09:09:21.211Z,98303.55
2018-05-07T09:11:49.486Z,98306.24
2018-05-07T09:14:17.763Z,98301.71
2018-05-07T09:16:46.090Z,98295.45
2018-05-07T09:19:15.133Z,98300.29
2018-05-07T09:21:43.806Z,98289.97
2018-05-07T09:24:12.191Z,98284.95
2018-05-07T09:26:40.471Z,98288.86
2018-05-07T09:29:09.570Z,98282.34
2018-05-07T09:31:37.921Z,98282.41
2018-05-07T09:34:06.255Z,98278.13
2018-05-07T09:36:34.835Z,98273.02
2018-05-07T09:39:03.154Z,98271.77
2018-05-07T09:41:31.861Z,98272.98
2018-05-07T09:44:01.070Z,98265.82
2018-05-07T09:46:29.382Z,98261.31
2018-05-07T09:48:57.692Z,98257.06
2018-05-07T09:51:25.951Z,98248.78
2018-05-07T09:53:54.271Z,98260.54
2018-05-07T09:56:22.311Z,98258.31
2018-05-07T09:58:58.320Z,98249.12
2018-05-07T10:01:26.930Z,98247.87
2018-05-07T10:03:55.210Z,98245.19
2018-05-07T10:06:23.534Z,98240.30
2018-05-07T10:08:51.819Z,98244.34
2018-05-07T10:11:20.367Z,98236.16
2018-05-07T10:13:48.714Z,98239.34
2018-05-07T10:16:17.090Z,98231.58
2018-05-07T10:18:45.375Z,98232.72
2018-05-07T10:21:13.695Z,98222.42
2018-05-07T10:23:42.398Z,98232.66
2018-05-07T10:26:10.675Z,98215.84
2018-05-07T10:28:39.767Z,98227.59
2018-05-07T10:31:08.084Z,98217.87
2018-05-07T10:33:36.370Z,98217.75
2018-05-07T10:36:04.767Z,98218.14
2018-05-07T10:38:33.744Z,98219.98
2018-05-07T10:41:02.023Z,98209.73
2018-05-07T10:43:30.367Z,98208.15
2018-05-07T10:45:58.871Z,98205.28
2018-05-07T10:48:27.150Z,98196.73
2018-05-07T10:50:55.936Z,98191.33
2018-05-07T10:53:24.283Z,98176.50
2018-05-07T10:55:52.566Z,98189.80
2018-05-07T10:58:20.886Z,98190.72
2018-05-07T11:00:49.161Z,98186.20
2018-05-07T11:03:17.442Z,98180.26
2018-05-07T11:05:45.751Z,98172.53
2018-05-07T11:08:14.570Z,98179.83
2018-05-07T11:10:43.754Z,98172.71
2018-05-07T11:13:12.119Z,98169.50
2018-05-07T11:15:40.695Z,98168.73
2018-05-07T11:18:08.982Z,98162.63
2018-05-07T11:20:37.322Z,98168.00
2018-05-07T11:23:06.883Z,98156.93
2018-05-07T11:25:35.863Z,98161.34
2018-05-07T11:28:04.467Z,98166.28
2018-05-07T11:30:32.585Z,98157.44
2018-05-07T11:33:00.862Z,98151.91
2018-05-07T11:35:29.333Z,98141.65
2018-05-07T11:37:58.393Z,98147.11
2018-05-07T11:40:26.671Z,98146.17
2018-05-07T11:42:55.681Z,98141.61
2018-05-07T11:45:23.998Z,98136.27
2018-05-07T11:47:52.274Z,98126.52
2018-05-07T11:50:20.950Z,98135.42
2018-05-07T11:52:49.502Z,98132.41
2018-05-07T11:55:18.321Z,98130.44
2018-05-07T11:57:46.626Z,98130.33
2018-05-07T12:00:14.946Z,98127.41
2018-05-07T12:02:43.235Z,98123.12
2018-05-07T12:05:11.523Z,98120.33
2018-05-07T12:07:39.857Z,98120.94
2018-05-07T12:10:08.137Z,98132.33
2018-05-07T12:12:36.878Z,98119.67
2018-05-07T12:15:06.013Z,98117.36
2018-05-07T12:17:34.342Z,98112.34
2018-05-07T12:20:02.698Z,98111.44
2018-05-07T12:22:31.010Z,98105.48
2018-05-07T12:24:59.355Z,98118.27
2018-05-07T12:27:27.638Z,98113.34
2018-05-07T12:29:56.497Z,98109.73
2018-05-07T12:32:25.599Z,98100.94
2018-05-07T12:34:53.879Z,98103.28
2018-05-07T12:37:22.206Z,98092.85
2018-05-07T12:39:50.479Z,98090.14
2018-05-07T12:42:18.750Z,98093.87
2018-05-07T12:44:47.066Z,98092.28
2018-05-07T12:47:15.531Z,98081.97
2018-05-07T12:49:43.806Z,98079.97
2018-05-07T12:52:12.119Z,98065.69
2018-05-07T12:54:40.666Z,98069.43
2018-05-07T12:57:08.952Z,98075.58
2018-05-07T12:59:37.710Z,98078.66
2018-05-07T13:02:05.995Z,98063.16
2018-05-07T13:04:34.284Z,98079.98
2018-05-07T13:07:03.113Z,98066.78
2018-05-07T13:09:31.390Z,98057.44
2018-05-07T13:11:59.670Z,98051.70
2018-05-07T13:14:28.591Z,98047.05
2018-05-07T13:16:56.879Z,98040.86
2018-05-07T13:19:25.302Z,98041.16
2018-05-07T13:21:54.406Z,98034.95
2018-05-07T13:24:22.684Z,98050.70
2018-05-07T13:26:51.336Z,98038.02
2018-05-07T13:29:20.058Z,98037.42
2018-05-07T13:31:48.816Z,98025.16
2018-05-07T13:34:18.098Z,98021.33
2018-05-07T13:36:46.423Z,98019.16
2018-05-07T13:39:14.718Z,98025.45
2018-05-07T13:41:43.104Z,98014.48
2018-05-07T13:44:11.415Z,98014.20
2018-05-07T13:46:40.293Z,98009.00
2018-05-07T13:49:09.370Z,98005.58
2018-05-07T13:51:38.467Z,98015.98
2018-05-07T13:54:06.923Z,98005.90
2018-05-07T13:56:35.247Z,97993.00
2018-05-07T13:59:03.523Z,97991.66
2018-05-07T14:01:31.798Z,98005.47
2018-05-07T14:04:00.670Z,98002.18
2018-05-07T14:06:29.803Z,97989.49
2018-05-07T14:08:59.883Z,97977.29
2018-05-07T14:11:28.778Z,97989.70
2018-05-07T14:13:56.469Z,97980.51
2018-05-07T14:16:24.793Z,97975.77
2018-05-07T14:18:53.078Z,97975.05
2018-05-07T14:21:21.354Z,97971.72
2018-05-07T14:23:50.220Z,97978.33
2018-05-07T14:26:18.589Z,97965.61
2018-05-07T14:28:46.888Z,97963.05
2018-05-07T14:31:15.202Z,97957.45
2018-05-07T14:33:43.487Z,97962.30
2018-05-07T14:36:11.767Z,97960.48
2018-05-07T14:38:40.121Z,97950.01
2018-05-07T14:41:08.380Z,97943.34
2018-05-07T14:43:36.688Z,97950.76
2018-05-07T14:46:06.478Z,97945.60
2018-05-07T14:48:35.107Z,97949.77
2018-05-07T14:51:03.390Z,97938.86
2018-05-07T14:53:31.715Z,97945.34
2018-05-07T14:55:59.992Z,97943.75
2018-05-07T14:58:29.786Z,97941.92
2018-05-07T15:00:59.200Z,97946.68
2018-05-07T15:03:27.906Z,97946.76
2018-05-07T15:05:56.190Z,97947.20
2018-05-07T15:08:24.491Z,97932.77
2018-05-07T15:10:52.775Z,97935.10
2018-05-07T15:13:21.166Z,97929.49
2018-05-07T15:15:49.378Z,97919.84
2018-05-07T15:18:17.654Z,97930.65
2018-05-07T15:20:46.855Z,97914.53
2018-05-07T15:23:15.443Z,97915.05
2018-05-07T15:25:43.680Z,97909.61
2018-05-07T15:28:12.626Z,97911.44
2018-05-07T15:30:41.493Z,97910.95
2018-05-07T15:33:09.775Z,97915.14
2018-05-07T15:35:38.059Z,97906.43
2018-05-07T15:38:07.515Z,97903.36
2018-05-07T15:40:36.727Z,97917.19
2018-05-07T15:43:05.770Z,97909.45
2018-05-07T15:45:34.758Z,97899.48
2018-05-07T15:48:03.043Z,97902.59
2018-05-07T15:50:32.130Z,97893.48
2018-05-07T15:53:01.319Z,97899.86
2018-05-07T15:55:29.598Z,97898.88
2018-05-07T15:57:57.982Z,97897.15
2018-05-07T16:00:27.737Z,97900.06
2018-05-07T16:02:56.153Z,97894.75
2018-05-07T16:05:24.691Z,97898.97
2018-05-07T16:07:53.927Z,97896.23
2018-05-07T16:10:23.018Z,97888.63
2018-05-07T16:12:51.762Z,97901.34
2018-05-07T16:15:20.396Z,97885.45
2018-05-07T16:17:49.058Z,97879.08
2018-05-07T16:20:17.730Z,97882.67
2018-05-07T16:22:46.475Z,97875.47
2018-05-07T16:25:15.130Z,97881.65
2018-05-07T16:27:43.409Z,97884.01
2018-05-07T16:30:12.458Z,97883.84
2018-05-07T16:32:40.779Z,97883.05
2018-05-07T16:35:09.180Z,97884.69
2018-05-07T16:37:37.509Z,97884.42
2018-05-07T16:40:05.811Z,97883.45
2018-05-07T16:42:34.858Z,97883.41
2018-05-07T16:45:03.753Z,97891.06
2018-05-07T16:47:32.804Z,97893.88
2018-05-07T16:50:04.529Z,97887.75
2018-05-07T16:52:34.379Z,97886.94
2018-05-07T16:55:03.349Z,97890.52
2018-05-07T17:00:31.586Z,97890.94
2018-05-07T17:03:01.372Z,97892.73
2018-05-07T17:05:29.647Z,97890.18
2018-05-07T17:07:58.243Z,97891.03
2018-05-07T17:10:27.543Z,97889.75
2018-05-07T17:12:56.078Z,97890.51
2018-05-07T17:15:24.358Z,97892.81
2018-05-07T17:17:52.676Z,97899.89
2018-05-07T17:20:20.956Z,97893.50
2018-05-07T17:22:50.139Z,97895.53
2018-05-07T17:25:18.455Z,97905.45
2018-05-07T17:27:46.813Z,97909.36
2018-05-07T17:30:15.091Z,97915.44
2018-05-07T17:32:43.676Z,97918.52
2018-05-07T17:35:11.958Z,97912.30
2018-05-07T17:37:41.095Z,97908.62
2018-05-07T17:40:10.208Z,97916.62
2018-05-07T17:42:38.470Z,97913.24
2018-05-07T17:58:47.619Z,97915.69
2018-05-07T18:01:16.512Z,97913.86
2018-05-07T18:03:44.906Z,97909.25
2018-05-07T18:06:14.003Z,97910.95
2018-05-07T18:08:42.910Z,97920.44
2018-05-07T18:11:11.193Z,97909.37
2018-05-07T18:13:39.886Z,97915.19
2018-05-07T18:16:09.575Z,97917.54
2018-05-07T18:18:38.114Z,97922.98
2018-05-07T18:21:06.395Z,97917.50
2018-05-07T18:23:35.427Z,97917.03
2018-05-07T18:26:03.758Z,97921.41
2018-05-07T18:28:32.795Z,97917.59
2018-05-07T18:31:01.086Z,97918.26
2018-05-07T18:33:30.244Z,97924.88
2018-05-07T18:35:58.707Z,97919.87
2018-05-07T18:38:26.999Z,97924.98
2018-05-07T18:40:55.310Z,97926.98
2018-05-07T18:43:24.099Z,97923.80
2018-05-07T18:45:53.188Z,97922.37
2018-05-07T18:48:21.514Z,97922.26
2018-05-07T18:50:49.818Z,97922.78
2018-05-07T18:53:18.415Z,97924.86
2018-05-07T18:55:47.007Z,97922.78
2018-05-07T18:58:16.608Z,97926.35
2018-05-07T19:00:45.230Z,97920.66
2018-05-07T19:03:14.457Z,97914.98
2018-05-07T19:05:43.095Z,97918.92
2018-05-07T19:08:12.271Z,97915.33
2018-05-07T19:10:41.702Z,97919.05
2018-05-07T19:13:09.979Z,97918.61
2018-05-07T19:15:38.706Z,97920.14
2018-05-07T19:18:07.546Z,97917.61
2018-05-07T19:20:35.846Z,97920.08
2018-05-07T19:23:04.415Z,97924.02
2018-05-07T19:25:33.485Z,97923.61
2018-05-07T19:28:02.338Z,97921.50
2018-05-07T19:30:30.623Z,97920.23
2018-05-07T19:32:58.906Z,97927.34
2018-05-07T19:35:27.722Z,97930.47
2018-05-07T19:37:55.998Z,97931.69
2018-05-07T19:40:24.678Z,97926.63
2018-05-07T19:42:53.558Z,97929.79
2018-05-07T19:45:22.671Z,97925.61
2018-05-07T19:47:51.596Z,97925.48
2018-05-07T19:50:21.703Z,97930.18
2018-05-07T19:52:50.286Z,97931.67
2018-05-07T19:55:20.711Z,97922.44
2018-05-07T19:57:48.999Z,97925.56
2018-05-07T20:00:18.094Z,97929.30
2018-05-07T20:02:46.426Z,97930.58
2018-05-07T20:05:15.032Z,97932.09
2018-05-07T20:07:43.845Z,97935.65
2018-05-07T20:10:12.675Z,97937.97
2018-05-07T20:12:41.045Z,97935.56
2018-05-07T20:15:09.537Z,97934.38
2018-05-07T20:17:37.820Z,97935.03
2018-05-07T20:20:06.205Z,97933.78
2018-05-07T20:22:34.420Z,97932.03
2018-05-07T20:25:02.859Z,97926.66
2018-05-07T20:27:31.182Z,97928.94
2018-05-07T20:29:59.466Z,97932.81
2018-05-07T20:32:28.833Z,97931.21
2018-05-07T20:34:58.871Z,97926.77
2018-05-07T20:37:28.247Z,97930.64
2018-05-07T20:39:56.614Z,97930.19
2018-05-07T20:42:25.326Z,97932.44
2018-05-07T20:44:54.490Z,97930.25
2018-05-07T20:47:22.826Z,97927.67
2018-05-07T20:49:51.462Z,97927.22
2018-05-07T20:52:20.297Z,97929.47
2018-05-07T20:54:48.854Z,97924.98
2018-05-07T20:57:17.134Z,97932.98
2018-05-07T20:59:45.690Z,97924.98
2018-05-07T21:02:14.929Z,97923.45
2018-05-07T21:04:43.847Z,97920.95
2018-05-07T21:07:13.575Z,97922.42
2018-05-07T21:09:42.526Z,97921.39
2018-05-07T21:12:11.579Z,97922.68
2018-05-07T21:14:39.904Z,97931.39
2018-05-07T21:17:08.991Z,97927.25
2018-05-07T21:19:37.332Z,97927.49
2018-05-07T21:22:05.612Z,97920.91
2018-05-07T21:24:33.980Z,97923.97
2018-05-07T21:27:02.764Z,97920.42
2018-05-07T21:29:31.159Z,97920.84
2018-05-07T21:32:00.163Z,97922.59
2018-05-07T21:34:28.448Z,97916.14
2018-05-07T21:36:56.854Z,97919.45
2018-05-07T21:39:25.178Z,97923.13
2018-05-07T21:41:53.458Z,97918.86
2018-05-07T21:44:21.819Z,97919.00
2018-05-07T21:46:50.198Z,97918.20
2018-05-07T21:49:19.143Z,97921.19
2018-05-07T21:51:48.423Z,97916.34
2018-05-07T21:54:17.940Z,97915.14
2018-05-07T21:56:46.227Z,97917.58
2018-05-07T21:59:14.703Z,97913.70
2018-05-07T22:01:44.307Z,97910.95
2018-05-07T22:04:14.442Z,97905.13
2018-05-07T22:06:43.535Z,97906.48
2018-05-07T22:09:12.407Z,97906.30
2018-05-07T22:11:40.952Z,97905.79
2018-05-07T22:14:10.149Z,97899.20
2018-05-07T22:16:39.194Z,97904.19
2018-05-07T22:19:07.466Z,97896.44
2018-05-07T22:21:36.283Z,97898.22
2018-05-07T22:24:04.565Z,97902.65
2018-05-07T22:26:32.955Z,97899.08
2018-05-07T22:29:01.558Z,97902.39
2018-05-07T22:31:29.839Z,97902.48
2018-05-07T22:33:59.282Z,97903.95
2018-05-07T22:36:27.606Z,97898.98
2018-05-07T22:38:56.322Z,97896.20
2018-05-07T22:41:24.594Z,97890.92
2018-05-07T22:43:52.891Z,97889.86
2018-05-07T22:46:21.225Z,97882.86
2018-05-07T22:48:49.493Z,97892.42
2018-05-07T22:51:18.346Z,97885.39
2018-05-07T22:53:46.643Z,97891.52
2018-05-07T22:56:14.922Z,97886.17
2018-05-07T22:58:43.222Z,97889.27
2018-05-07T23:01:11.791Z,97889.05
2018-05-07T23:03:40.068Z,97884.05
2018-05-07T23:06:09.535Z,97885.31
2018-05-07T23:08:37.810Z,97889.23
2018-05-07T23:11:06.322Z,97886.06
2018-05-07T23:13:34.603Z,97891.77
2018-05-07T23:16:03.931Z,97889.64
2018-05-07T23:18:32.215Z,97893.06
2018-05-07T23:21:00.501Z,97899.60
2018-05-07T23:23:28.778Z,97892.06
2018-05-07T23:25:57.270Z,97889.28
2018-05-07T23:28:25.542Z,97885.67
2018-05-07T23:30:54.469Z,97879.22
2018-05-07T23:33:22.887Z,97876.86
2018-05-07T23:35:51.166Z,97876.08
2018-05-07T23:38:20.134Z,97875.27
2018-05-07T23:40:48.475Z,97870.54
2018-05-07T23:43:17.426Z,97869.20
2018-05-07T23:45:45.706Z,97864.20
2018-05-07T23:48:14.010Z,97874.64
2018-05-07T23:50:42.322Z,97867.69
2018-05-07T23:53:11.119Z,97866.08
2018-05-07T23:55:39.438Z,97857.45
2018-05-07T23:58:07.755Z,97858.35
